createdAt,value
2017-10-11T17:59:32.322Z,15.74
2017-10-11T18:00:32.290Z,15.69
2017-10-11T18:02:26.723Z,15.62
2017-10-11T18:03:26.702Z,15.62
2017-10-11T18:05:21.954Z,15.64
2017-10-11T18:07:35.753Z,15.64
2017-10-11T18:08:35.202Z,15.57
2017-10-11T18:10:28.597Z,15.72
2017-10-11T18:11:28.538Z,15.69
2017-10-11T18:13:21.290Z,15.74
2017-10-11T18:14:21.370Z,15.75
2017-10-11T18:16:15.041Z,15.80
2017-10-11T18:17:14.317Z,15.78
2017-10-11T18:19:07.609Z,15.80
2017-10-11T18:20:07.648Z,15.76
2017-10-11T18:22:00.996Z,15.87
2017-10-11T18:23:00.872Z,15.75
2017-10-11T18:24:54.044Z,15.83
2017-10-11T18:25:53.952Z,15.86
2017-10-11T18:27:46.944Z,15.84
2017-10-11T18:28:46.997Z,15.89
2017-10-11T18:30:40.022Z,15.89
2017-10-11T18:31:40.157Z,15.90
2017-10-11T18:33:33.029Z,15.96
2017-10-11T18:34:33.045Z,16.04
2017-10-11T18:36:26.078Z,15.97
2017-10-11T18:37:26.148Z,15.96
2017-10-11T18:39:19.132Z,16.05
2017-10-11T18:40:19.179Z,15.96
2017-10-11T18:42:13.215Z,16.01
2017-10-11T18:43:13.229Z,16.01
2017-10-11T18:45:06.244Z,16.02
2017-10-11T18:46:06.267Z,16.08
2017-10-11T18:47:59.332Z,16.11
2017-10-11T18:48:59.468Z,16.07
2017-10-11T18:50:52.372Z,16.01
2017-10-11T18:51:52.372Z,16.05
2017-10-11T18:53:45.365Z,16.08
2017-10-11T18:54:45.468Z,16.09
2017-10-11T18:56:38.524Z,16.01
2017-10-11T18:57:38.404Z,16.02
2017-10-11T18:59:31.603Z,16.12
2017-10-11T19:00:31.588Z,16.05
2017-10-11T19:02:24.555Z,15.94
2017-10-11T19:03:24.611Z,15.96
2017-10-11T19:05:17.619Z,16.00
2017-10-11T19:06:17.635Z,15.96
2017-10-11T19:08:11.157Z,15.86
2017-10-11T19:09:11.247Z,15.90
2017-10-11T19:11:04.163Z,15.84
2017-10-11T19:12:04.149Z,15.75
2017-10-11T19:13:57.654Z,15.78
2017-10-11T19:14:57.229Z,15.69
2017-10-11T19:16:57.372Z,15.78
2017-10-11T19:19:45.958Z,15.75
2017-10-11T19:20:46.053Z,15.74
2017-10-11T19:22:39.054Z,15.78
2017-10-11T19:23:39.078Z,15.78
2017-10-11T19:25:32.069Z,15.76
2017-10-11T19:26:32.086Z,15.82
2017-10-11T19:28:25.125Z,15.86
2017-10-11T19:29:25.158Z,15.86
2017-10-11T19:31:32.174Z,15.89
2017-10-11T19:32:18.142Z,15.83
2017-10-11T19:34:11.163Z,15.94
2017-10-11T19:35:11.181Z,15.92
2017-10-11T19:37:04.739Z,16.02
2017-10-11T19:38:04.739Z,15.89
2017-10-11T19:39:57.721Z,15.96
2017-10-11T19:40:57.762Z,15.93
2017-10-11T19:42:50.786Z,15.89
2017-10-11T19:43:50.788Z,15.96
2017-10-11T19:45:43.793Z,15.93
2017-10-11T19:46:43.827Z,15.90
2017-10-11T19:48:36.866Z,16.01
2017-10-11T19:49:36.829Z,15.94
2017-10-11T19:51:29.836Z,15.94
2017-10-11T19:52:29.851Z,15.94
2017-10-11T19:54:22.924Z,15.92
2017-10-11T19:55:22.885Z,15.92
2017-10-11T19:57:15.900Z,15.89
2017-10-11T19:58:16.012Z,15.94
2017-10-11T20:00:09.463Z,15.84
2017-10-11T20:01:09.048Z,15.94
2017-10-11T20:03:01.992Z,15.93
